Time;durP1;ratioP1;P1;durP2;ratioP2;P2;SDS_P1;SDS_P2;PMS_P1;PMS_P2;Temp;Humidity;BMP_temperature;BMP_pressure;BME280_temperature;BME280_humidity;BME280_pressure;Samples;Min_cycle;Max_cycle;Signal;HPM_P1;HPM_P2
2021/12/08 00:02:10;;;;;;;4.20;1.00;;;;;;;2.56;61.92;97310.03;4979275;28;20114;-72
2021/12/08 00:04:36;;;;;;;5.85;1.63;;;;;;;2.56;63.13;97331.38;4973927;28;20539;-72
2021/12/08 00:07:03;;;;;;;4.55;1.08;;;;;;;2.58;62.57;97321.34;4994941;28;20027;-72
2021/12/08 00:09:45;;;;;;;4.22;1.40;;;;;;;2.56;63.10;97318.03;4973492;28;20361;-72
2021/12/08 00:14:57;;;;;;;7.13;1.55;;;;;;;2.50;63.75;97324.97;5004124;28;20091;-72
2021/12/08 00:17:22;;;;;;;4.57;2.05;;;;;;;2.47;64.27;97325.34;4997231;28;20030;-71
2021/12/08 00:19:48;;;;;;;3.00;1.23;;;;;;;2.47;63.98;97322.69;4991070;28;20034;-72
2021/12/08 00:22:13;;;;;;;2.63;1.20;;;;;;;2.54;62.91;97322.75;4983347;28;20063;-72
2021/12/08 00:24:39;;;;;;;4.97;1.80;;;;;;;2.49;63.35;97317.13;4990996;28;20031;-71
2021/12/08 00:27:05;;;;;;;2.80;1.20;;;;;;;2.53;63.59;97311.25;4992410;28;20053;-71
2021/12/08 00:29:30;;;;;;;1.80;1.10;;;;;;;2.46;63.57;97313.00;4993188;28;20041;-72
2021/12/08 00:31:56;;;;;;;3.53;1.50;;;;;;;2.50;63.45;97311.63;4974978;28;20038;-72
2021/12/08 00:34:22;;;;;;;2.03;1.00;;;;;;;2.48;63.07;97300.28;4975124;28;20030;-72
2021/12/08 00:36:51;;;;;;;2.75;1.17;;;;;;;2.46;62.86;97293.50;4992244;28;20038;-72
2021/12/08 00:39:16;;;;;;;6.13;1.48;;;;;;;2.50;63.54;97303.63;4991532;28;20018;-71
2021/12/08 00:41:42;;;;;;;4.72;1.60;;;;;;;2.55;62.60;97290.53;4991888;28;20045;-72
2021/12/08 00:44:08;;;;;;;3.22;1.50;;;;;;;2.58;63.56;97300.00;4992292;28;20399;-71
2021/12/08 00:46:34;;;;;;;2.13;1.23;;;;;;;2.51;63.83;97280.41;4992547;28;20041;-71
2021/12/08 00:49:00;;;;;;;2.55;1.60;;;;;;;2.39;64.88;97288.94;4991372;28;20521;-71
2021/12/08 00:51:25;;;;;;;2.53;1.20;;;;;;;2.19;67.34;97288.69;4992370;28;20034;-72
2021/12/08 00:53:51;;;;;;;2.50;1.20;;;;;;;2.13;67.03;97285.97;5004612;28;20435;-72
2021/12/08 00:56:17;;;;;;;2.45;1.10;;;;;;;2.13;67.26;97280.63;4992053;28;20026;-72
2021/12/08 00:58:42;;;;;;;3.40;1.25;;;;;;;2.01;67.98;97280.25;4995853;28;20022;-72
2021/12/08 01:01:08;;;;;;;3.08;1.17;;;;;;;1.97;67.71;97287.81;4992041;28;20038;-72
2021/12/08 01:03:36;;;;;;;1.42;0.90;;;;;;;1.98;68.99;97302.78;4992694;28;20034;-73
2021/12/08 01:06:04;;;;;;;1.85;1.00;;;;;;;1.88;69.67;97296.91;4992372;28;20025;-72
2021/12/08 01:08:32;;;;;;;4.80;0.82;;;;;;;1.73;70.08;97291.63;4988415;28;20026;-73
2021/12/08 01:11:02;;;;;;;6.35;0.90;;;;;;;1.69;70.28;97278.84;4992244;28;20046;-74
2021/12/08 01:13:28;;;;;;;4.57;0.85;;;;;;;1.62;71.56;97286.72;4992015;28;20054;-73
2021/12/08 01:15:56;;;;;;;4.40;1.00;;;;;;;1.61;71.30;97279.75;4992074;28;20058;-73
2021/12/08 01:18:22;;;;;;;3.22;1.20;;;;;;;1.52;71.85;97287.03;4991545;28;20023;-73
2021/12/08 01:20:49;;;;;;;4.32;1.10;;;;;;;1.59;72.09;97286.28;4990473;28;20061;-73
2021/12/08 01:23:16;;;;;;;1.25;0.63;;;;;;;1.52;74.21;97291.53;4992430;28;20058;-73
2021/12/08 01:25:42;;;;;;;3.10;1.00;;;;;;;1.35;75.12;97277.53;4991938;28;20026;-73
2021/12/08 01:28:08;;;;;;;1.58;1.13;;;;;;;1.30;77.46;97285.25;4992740;28;20023;-73
2021/12/08 01:30:34;;;;;;;3.42;1.02;;;;;;;1.27;79.54;97305.09;4991794;28;20125;-73
2021/12/08 01:32:59;;;;;;;3.00;1.30;;;;;;;1.14;79.33;97307.53;4990956;28;20084;-73
2021/12/08 01:35:25;;;;;;;4.65;1.23;;;;;;;1.01;81.56;97294.03;4992122;28;20084;-73
2021/12/08 01:37:51;;;;;;;2.00;1.23;;;;;;;1.11;81.90;97318.56;4991439;28;20789;-73
2021/12/08 01:40:17;;;;;;;3.65;1.50;;;;;;;1.01;82.57;97317.97;4993400;28;20042;-73
2021/12/08 01:42:47;;;;;;;4.25;1.17;;;;;;;0.95;84.67;97318.72;4986414;28;20054;-73
2021/12/08 01:48:05;;;;;;;2.55;1.00;;;;;;;0.71;88.83;97317.03;4984907;28;20114;-73
2021/12/08 01:50:31;;;;;;;2.40;1.20;;;;;;;0.68;89.10;97312.91;4994327;28;20018;-73
2021/12/08 01:52:57;;;;;;;5.03;1.45;;;;;;;0.61;89.84;97293.34;4978548;28;20033;-73
2021/12/08 01:55:22;;;;;;;2.10;0.95;;;;;;;0.58;90.79;97299.84;4995763;28;20023;-73
2021/12/08 01:57:48;;;;;;;3.33;1.05;;;;;;;0.58;91.57;97307.00;4994899;28;20037;-73
2021/12/08 02:00:20;;;;;;;1.55;0.98;;;;;;;0.40;92.76;97272.72;4995083;28;20030;-73
2021/12/08 02:02:46;;;;;;;2.08;1.25;;;;;;;0.46;93.81;97289.78;4994552;28;20427;-74
2021/12/08 02:05:11;;;;;;;1.60;0.95;;;;;;;0.54;94.77;97298.53;4977871;28;20054;-73
2021/12/08 02:07:38;;;;;;;2.47;1.30;;;;;;;0.54;95.15;97295.06;4994868;28;20030;-74
2021/12/08 02:10:05;;;;;;;3.33;1.48;;;;;;;0.58;93.98;97304.34;4994991;28;20370;-73
2021/12/08 02:12:34;;;;;;;2.88;1.33;;;;;;;0.55;95.93;97310.84;4995269;28;20072;-73
2021/12/08 02:15:00;;;;;;;3.63;1.67;;;;;;;0.49;95.83;97302.75;4991475;28;20511;-73
2021/12/08 02:17:26;;;;;;;3.55;1.27;;;;;;;0.59;96.76;97320.13;4995189;28;20030;-73
2021/12/08 02:19:52;;;;;;;2.88;1.38;;;;;;;0.57;97.49;97313.31;4998282;28;20455;-74
2021/12/08 02:22:18;;;;;;;2.08;1.30;;;;;;;0.58;96.57;97305.19;4994703;28;20038;-73
2021/12/08 02:24:43;;;;;;;2.53;1.15;;;;;;;0.56;97.28;97309.84;5007711;28;20037;-73
2021/12/08 02:27:08;;;;;;;4.28;1.30;;;;;;;0.53;98.19;97296.06;5004002;28;20062;-73
2021/12/08 02:29:41;;;;;;;5.93;1.63;;;;;;;0.44;97.81;97274.00;4995477;28;20041;-73
2021/12/08 02:48:11;;;;;;;3.17;1.20;;;;;;;0.55;100.00;97305.53;4999767;28;20033;-74
2021/12/08 02:50:40;;;;;;;4.63;1.25;;;;;;;0.53;100.00;97310.19;4996136;28;20027;-73
2021/12/08 02:53:08;;;;;;;3.10;0.90;;;;;;;0.54;100.00;97285.22;4994196;28;20030;-73
2021/12/08 02:55:35;;;;;;;2.50;1.23;;;;;;;0.57;100.00;97297.34;4957711;28;20019;-74
2021/12/08 02:58:02;;;;;;;7.63;1.45;;;;;;;0.59;100.00;97292.69;4976997;28;20053;-74
2021/12/08 03:00:33;;;;;;;2.03;1.20;;;;;;;0.65;100.00;97287.50;5005921;28;20022;-73
2021/12/08 03:03:00;;;;;;;3.15;1.00;;;;;;;0.65;100.00;97274.19;5018010;28;20061;-74
2021/12/08 03:05:26;;;;;;;3.35;1.33;;;;;;;0.76;100.00;97282.72;5018240;28;20022;-74
2021/12/08 03:07:52;;;;;;;2.92;0.85;;;;;;;0.76;100.00;97282.72;5018186;28;20014;-73
2021/12/08 03:10:21;;;;;;;3.63;1.13;;;;;;;0.76;100.00;97269.41;5011503;28;20006;-74
2021/12/08 03:12:47;;;;;;;1.92;1.23;;;;;;;0.67;100.00;97249.22;5019180;28;20038;-74
2021/12/08 03:15:13;;;;;;;2.60;1.40;;;;;;;0.86;100.00;97272.66;4998800;28;20411;-74
2021/12/08 03:17:39;;;;;;;2.97;1.35;;;;;;;0.84;100.00;97261.41;4973990;28;20027;-74
2021/12/08 03:20:08;;;;;;;1.77;1.05;;;;;;;0.77;100.00;97263.13;5032663;22;20048;-71
2021/12/08 03:22:37;;;;;;;3.33;1.05;;;;;;;0.96;100.00;97286.56;5076734;28;20401;-71
2021/12/08 03:25:06;;;;;;;4.93;1.52;;;;;;;0.85;100.00;97260.38;5075567;28;20111;-71
2021/12/08 03:27:41;;;;;;;3.90;1.30;;;;;;;0.84;100.00;97264.88;5064282;28;20514;-71
2021/12/08 03:30:15;;;;;;;4.38;1.73;;;;;;;0.78;100.00;97291.38;5069158;28;20063;-70
2021/12/08 03:32:40;;;;;;;2.70;1.10;;;;;;;0.75;100.00;97297.06;5070998;28;20028;-71
2021/12/08 03:35:09;;;;;;;3.20;1.20;;;;;;;0.76;100.00;97288.06;5068143;28;20103;-71
2021/12/08 03:37:37;;;;;;;2.42;1.50;;;;;;;0.69;100.00;97265.84;5075448;28;20040;-71
2021/12/08 03:40:11;;;;;;;3.35;1.30;;;;;;;0.81;100.00;97283.03;5073634;28;20061;-71
2021/12/08 03:42:38;;;;;;;2.67;1.17;;;;;;;0.84;100.00;97291.50;5074543;28;20024;-71
2021/12/08 03:45:11;;;;;;;1.98;1.23;;;;;;;0.84;100.00;97283.53;5062934;28;20051;-71
2021/12/08 03:47:41;;;;;;;2.17;0.90;;;;;;;0.88;100.00;97273.31;5074048;28;20111;-71
2021/12/08 03:50:09;;;;;;;5.15;1.23;;;;;;;1.09;100.00;97283.28;5071865;28;20028;-71
2021/12/08 03:52:37;;;;;;;2.38;1.30;;;;;;;0.95;100.00;97234.31;5075192;28;20117;-71
2021/12/08 03:55:03;;;;;;;2.40;1.17;;;;;;;1.04;100.00;97245.72;5072081;28;20385;-71
2021/12/08 03:57:29;;;;;;;2.30;1.08;;;;;;;1.23;100.00;97271.00;5074329;28;20104;-72
2021/12/08 03:59:54;;;;;;;1.98;0.80;;;;;;;1.34;100.00;97275.91;5072587;28;20584;-71
2021/12/08 04:02:20;;;;;;;1.48;0.70;;;;;;;1.25;100.00;97253.00;5055626;28;20040;-72
2021/12/08 04:04:49;;;;;;;1.98;1.02;;;;;;;1.29;100.00;97246.31;5064655;28;20031;-72
2021/12/08 04:07:16;;;;;;;2.63;1.08;;;;;;;1.39;100.00;97246.88;5080079;28;20111;-71
2021/12/08 04:09:44;;;;;;;2.45;1.10;;;;;;;1.36;100.00;97241.88;5072500;28;20078;-72
2021/12/08 04:12:12;;;;;;;3.17;1.10;;;;;;;1.52;100.00;97265.69;5070198;28;20639;-74
2021/12/08 04:14:46;;;;;;;3.53;1.10;;;;;;;1.57;100.00;97274.97;5067398;28;20056;-73
2021/12/08 04:17:30;;;;;;;3.42;0.90;;;;;;;1.53;100.00;97269.19;5064575;28;20103;-74
2021/12/08 04:19:57;;;;;;;2.10;1.20;;;;;;;1.51;100.00;97245.38;5070315;28;20478;-74
2021/12/08 04:22:34;;;;;;;3.50;1.20;;;;;;;1.67;100.00;97260.34;5067745;28;20028;-72
2021/12/08 04:25:03;;;;;;;2.17;0.85;;;;;;;1.80;100.00;97273.03;5052433;28;20029;-74
2021/12/08 04:27:34;;;;;;;3.35;1.10;;;;;;;1.58;100.00;97239.31;5069664;28;20054;-75
2021/12/08 04:30:01;;;;;;;3.47;1.20;;;;;;;1.79;100.00;97279.38;5084512;28;20024;-74
2021/12/08 04:32:28;;;;;;;2.00;1.10;;;;;;;1.73;100.00;97259.63;5072470;28;20031;-74
2021/12/08 04:34:57;;;;;;;2.20;1.02;;;;;;;1.83;100.00;97256.66;5061661;28;20025;-74
2021/12/08 04:37:33;;;;;;;2.50;1.20;;;;;;;1.90;100.00;97268.22;5058521;28;20544;-74
2021/12/08 04:40:21;;;;;;;2.75;1.13;;;;;;;1.81;100.00;97261.38;5071172;28;20505;-75
2021/12/08 04:43:04;;;;;;;1.95;1.02;;;;;;;1.75;100.00;97272.75;5068971;28;20542;-74
2021/12/08 04:45:49;;;;;;;2.42;1.20;;;;;;;1.73;100.00;97258.81;5072274;28;20111;-74
2021/12/08 05:02:14;;;;;;;3.90;1.80;;;;;;;1.78;100.00;97250.22;5064526;28;20047;-73
2021/12/08 05:10:05;;;;;;;3.70;1.70;;;;;;;1.92;100.00;97242.22;5056302;28;20175;-68
2021/12/08 05:12:34;;;;;;;5.80;1.63;;;;;;;1.93;100.00;97254.53;5055118;28;20029;-68
2021/12/08 05:15:12;;;;;;;4.38;1.50;;;;;;;2.00;100.00;97243.13;5071440;28;20082;-69
2021/12/08 05:17:45;;;;;;;4.80;1.90;;;;;;;2.07;100.00;97255.53;5069878;28;20124;-72
2021/12/08 05:20:29;;;;;;;4.75;1.92;;;;;;;1.69;100.00;97197.00;5074967;28;20494;-73
2021/12/08 05:23:02;;;;;;;5.30;1.60;;;;;;;2.16;100.00;97253.56;5069185;28;20142;-75
2021/12/08 05:25:32;;;;;;;3.78;1.77;;;;;;;2.33;100.00;97267.50;5073708;28;20028;-73
2021/12/08 05:28:00;;;;;;;9.60;2.30;;;;;;;2.22;100.00;97250.13;5065652;28;20085;-72
2021/12/08 05:30:50;;;;;;;3.03;1.90;;;;;;;2.12;100.00;97252.28;5088876;28;20028;-75
2021/12/08 05:33:16;;;;;;;3.15;1.52;;;;;;;2.11;100.00;97277.31;5068905;28;20021;-76
2021/12/08 05:35:44;;;;;;;5.07;1.35;;;;;;;2.00;100.00;97253.78;5087399;28;20036;-72
2021/12/08 05:38:09;;;;;;;5.03;2.05;;;;;;;1.98;100.00;97269.97;5075872;28;20017;-72
2021/12/08 05:40:40;;;;;;;4.47;1.63;;;;;;;2.09;100.00;97274.00;5073142;28;20123;-74
2021/12/08 05:43:07;;;;;;;6.88;2.70;;;;;;;2.00;100.00;97283.13;5067118;28;20115;-74
2021/12/08 05:45:33;;;;;;;3.80;2.13;;;;;;;1.85;100.00;97254.63;5075263;28;20028;-71
2021/12/08 05:47:58;;;;;;;5.65;2.67;;;;;;;2.03;100.00;97275.56;5058560;28;20037;-71
2021/12/08 05:50:30;;;;;;;5.97;2.78;;;;;;;2.03;100.00;97285.41;5070919;28;20029;-75
2021/12/08 05:52:56;;;;;;;6.30;3.03;;;;;;;2.00;100.00;97269.78;5062470;28;20371;-70
2021/12/08 05:55:22;;;;;;;5.65;2.97;;;;;;;2.06;100.00;97279.72;5069318;28;20085;-71
2021/12/08 05:57:48;;;;;;;6.97;2.70;;;;;;;2.03;100.00;97283.56;5074715;28;20111;-70
2021/12/08 06:00:16;;;;;;;3.63;1.85;;;;;;;2.05;100.00;97283.41;5065611;28;20039;-70
2021/12/08 06:02:42;;;;;;;7.05;2.40;;;;;;;2.07;100.00;97268.00;5072866;28;20032;-75
2021/12/08 06:05:09;;;;;;;3.85;2.08;;;;;;;2.25;100.00;97288.94;5064918;28;20033;-72
2021/12/08 06:07:35;;;;;;;6.60;3.40;;;;;;;2.19;100.00;97266.53;5065234;28;20428;-70
2021/12/08 06:10:06;;;;;;;2.35;1.58;;;;;;;2.33;100.00;97281.69;5071354;28;20032;-71
2021/12/08 06:12:32;;;;;;;4.22;1.40;;;;;;;2.35;100.00;97273.47;5072043;28;20024;-71
2021/12/08 06:14:57;;;;;;;3.47;1.67;;;;;;;2.35;100.00;97234.25;5074693;28;20401;-69
2021/12/08 06:17:29;;;;;;;2.72;1.65;;;;;;;2.38;100.00;97223.22;5081838;28;20095;-71
2021/12/08 06:19:56;;;;;;;2.65;1.52;;;;;;;2.34;100.00;97203.25;5067226;28;20379;-69
2021/12/08 06:22:23;;;;;;;3.25;1.60;;;;;;;2.32;100.00;97197.28;5065066;28;20087;-71
2021/12/08 06:24:49;;;;;;;2.97;1.70;;;;;;;2.54;100.00;97227.47;5062321;28;20033;-70
2021/12/08 06:27:15;;;;;;;3.40;2.00;;;;;;;2.49;100.00;97221.03;5066633;28;20034;-71
2021/12/08 06:29:42;;;;;;;3.80;1.77;;;;;;;2.39;100.00;97200.84;5065150;28;20025;-70
2021/12/08 06:32:11;;;;;;;4.75;2.08;;;;;;;2.53;100.00;97201.78;5060709;28;20055;-70
2021/12/08 06:34:38;;;;;;;5.00;1.92;;;;;;;2.67;100.00;97223.25;5062345;28;20486;-70
2021/12/08 06:37:14;;;;;;;5.80;2.22;;;;;;;2.55;100.00;97165.06;5058803;28;20405;-68
2021/12/08 06:39:47;;;;;;;6.55;1.88;;;;;;;2.82;100.00;97190.09;5064867;28;20418;-75
2021/12/08 06:42:22;;;;;;;4.72;1.85;;;;;;;2.83;100.00;97165.06;5067499;28;20060;-76
2021/12/08 06:44:51;;;;;;;2.42;1.63;;;;;;;3.07;100.00;97162.97;5079126;28;20025;-76
2021/12/08 06:47:30;;;;;;;1.88;1.02;;;;;;;3.11;100.00;97145.50;5075665;28;20020;-70
2021/12/08 06:50:04;;;;;;;1.75;1.00;;;;;;;3.20;100.00;97149.69;5071917;28;20138;-74
2021/12/08 06:52:37;;;;;;;4.22;1.48;;;;;;;3.35;100.00;97178.13;5068414;28;20055;-68
2021/12/08 06:55:26;;;;;;;5.28;1.50;;;;;;;3.35;100.00;97181.59;5074680;28;20032;-72
2021/12/08 06:57:57;;;;;;;1.95;1.40;;;;;;;3.31;100.00;97198.25;5074877;28;20108;-70
2021/12/08 07:00:49;;;;;;;2.88;1.77;;;;;;;3.21;100.00;97212.78;5067495;28;20028;-71
2021/12/08 07:03:31;;;;;;;4.47;1.80;;;;;;;3.13;100.00;97237.00;5069291;28;20454;-70
2021/12/08 07:06:19;;;;;;;2.97;1.83;;;;;;;2.96;100.00;97241.81;5071115;28;20036;-75
2021/12/08 07:08:49;;;;;;;4.13;2.08;;;;;;;2.85;100.00;97245.81;5062830;28;20025;-70
2021/12/08 07:11:18;;;;;;;3.00;2.00;;;;;;;2.75;100.00;97253.34;5062934;28;20096;-69
2021/12/08 07:13:45;;;;;;;5.50;2.25;;;;;;;2.68;100.00;97268.47;5065718;28;20025;-69
2021/12/08 07:16:17;;;;;;;3.85;2.17;;;;;;;2.69;100.00;97275.44;5058697;28;20490;-68
2021/12/08 07:19:03;;;;;;;3.80;2.45;;;;;;;2.74;100.00;97270.38;5057444;28;20390;-75
2021/12/08 07:21:33;;;;;;;9.05;2.65;;;;;;;2.67;100.00;97271.31;5059455;28;20092;-76
2021/12/08 07:24:21;;;;;;;4.53;2.97;;;;;;;2.67;100.00;97285.50;5062564;28;20506;-71
2021/12/08 07:26:49;;;;;;;6.22;3.22;;;;;;;2.62;100.00;97286.09;5060659;28;20025;-70
2021/12/08 07:29:21;;;;;;;5.87;3.47;;;;;;;2.66;100.00;97280.34;5068624;28;20032;-72
2021/12/08 07:31:52;;;;;;;5.45;3.08;;;;;;;2.70;100.00;97287.81;5068698;28;20286;-72
2021/12/08 07:34:20;;;;;;;6.00;3.47;;;;;;;2.59;100.00;97290.97;5062122;28;20585;-71
2021/12/08 07:36:51;;;;;;;7.22;3.20;;;;;;;2.56;100.00;97292.16;5060171;28;20389;-71
2021/12/08 07:39:29;;;;;;;7.75;3.63;;;;;;;2.51;100.00;97291.91;5064696;28;20024;-71
2021/12/08 07:42:03;;;;;;;7.45;4.05;;;;;;;2.33;100.00;97252.31;5059793;28;20090;-73
2021/12/08 07:44:29;;;;;;;7.53;4.32;;;;;;;2.41;100.00;97262.03;5073067;28;20017;-73
2021/12/08 07:46:59;;;;;;;7.57;4.22;;;;;;;2.39;100.00;97269.41;5071396;28;20119;-73
2021/12/08 07:49:29;;;;;;;6.32;3.80;;;;;;;2.42;100.00;97243.16;5071595;28;20500;-73
2021/12/08 07:52:05;;;;;;;6.28;3.78;;;;;;;2.75;100.00;97253.34;5070958;28;20024;-74
2021/12/08 07:54:32;;;;;;;5.30;3.35;;;;;;;2.76;100.00;97244.31;5061560;28;20020;-73
2021/12/08 07:57:00;;;;;;;8.30;3.38;;;;;;;2.90;100.00;97249.75;5065089;28;20029;-70
2021/12/08 07:59:25;;;;;;;6.57;3.05;;;;;;;2.73;100.00;97206.50;5063864;28;20047;-73
2021/12/08 08:01:57;;;;;;;4.95;3.15;;;;;;;2.90;100.00;97247.09;5064475;28;20064;-70
2021/12/08 08:04:25;;;;;;;9.43;3.63;;;;;;;2.84;100.00;97219.31;5062621;28;20375;-70
2021/12/08 08:06:56;;;;;;;6.13;3.30;;;;;;;3.01;100.00;97241.22;5069189;28;20032;-75
2021/12/08 08:09:25;;;;;;;11.90;4.70;;;;;;;2.88;100.00;97239.25;5070969;28;20016;-72
2021/12/08 08:11:57;;;;;;;8.02;3.83;;;;;;;2.85;100.00;97237.78;5076345;28;20012;-76
2021/12/08 08:14:30;;;;;;;6.90;3.70;;;;;;;2.93;100.00;97258.19;5055090;28;20052;-68
2021/12/08 08:16:58;;;;;;;6.07;3.53;;;;;;;2.94;100.00;97264.38;5055938;28;20048;-75
2021/12/08 08:19:28;;;;;;;6.78;4.15;;;;;;;2.72;100.00;97232.34;5069242;28;20425;-76
2021/12/08 08:21:59;;;;;;;7.18;4.18;;;;;;;2.98;100.00;97257.63;5065448;28;20028;-70
2021/12/08 08:24:24;;;;;;;8.95;4.28;;;;;;;3.02;100.00;97256.22;5060060;28;20111;-74
2021/12/08 08:26:53;;;;;;;5.60;3.50;;;;;;;3.03;100.00;97244.50;5078085;28;20158;-74
2021/12/08 08:29:19;;;;;;;6.60;3.47;;;;;;;3.10;100.00;97255.28;5063102;28;20046;-73
2021/12/08 08:31:59;;;;;;;7.60;3.55;;;;;;;3.11;100.00;97255.06;5070437;28;20104;-70
2021/12/08 08:34:35;;;;;;;8.65;3.53;;;;;;;3.08;100.00;97255.44;5083085;28;20024;-70
2021/12/08 08:37:02;;;;;;;6.45;4.10;;;;;;;3.01;100.00;97235.88;5066163;28;20040;-70
2021/12/08 08:39:31;;;;;;;6.25;3.53;;;;;;;3.11;100.00;97271.09;5071575;28;20543;-70
2021/12/08 08:42:01;;;;;;;10.00;4.13;;;;;;;3.16;100.00;97278.53;5071367;28;20048;-76
2021/12/08 08:44:53;;;;;;;;;;;;;;;3.19;100.00;97289.66;5070803;28;20043;-70
2021/12/08 08:47:25;;;;;;;7.38;3.55;;;;;;;3.11;100.00;97260.41;5061168;28;19912;-81
2021/12/08 08:49:51;;;;;;;6.05;3.35;;;;;;;3.12;100.00;97266.56;5076457;28;20107;-80
2021/12/08 08:52:28;;;;;;;6.30;3.50;;;;;;;3.26;100.00;97269.16;5081910;28;20123;-79
2021/12/08 08:54:57;;;;;;;8.52;4.20;;;;;;;2.96;100.00;97216.91;5069704;28;20023;-79
2021/12/08 08:57:33;;;;;;;8.30;3.90;;;;;;;3.31;100.00;97265.09;5079100;28;20016;-74
2021/12/08 09:00:08;;;;;;;8.30;4.25;;;;;;;3.24;100.00;97236.44;5073502;28;20017;-71
2021/12/08 09:02:38;;;;;;;6.82;3.42;;;;;;;3.27;100.00;97236.06;5071597;28;20493;-77
2021/12/08 09:05:12;;;;;;;6.90;3.85;;;;;;;3.28;100.00;97227.03;5055881;28;20417;-74
2021/12/08 09:07:42;;;;;;;10.70;4.57;;;;;;;3.23;100.00;97247.34;5058929;28;20079;-80
2021/12/08 09:10:14;;;;;;;5.35;3.42;;;;;;;3.36;100.00;97250.09;5075478;28;20021;-75
2021/12/08 09:12:44;;;;;;;7.45;3.53;;;;;;;3.45;100.00;97275.66;5074905;28;20035;-73
2021/12/08 09:15:22;;;;;;;7.03;3.92;;;;;;;3.40;100.00;97271.91;5056455;28;20070;-77
2021/12/08 09:17:58;;;;;;;6.95;4.07;;;;;;;3.46;100.00;97265.81;5074813;28;20036;-77
2021/12/08 09:20:28;;;;;;;12.63;5.25;;;;;;;3.43;100.00;97274.19;5077789;28;20020;-77
2021/12/08 09:23:05;;;;;;;8.35;4.47;;;;;;;3.27;100.00;97267.28;5069650;28;20123;-76
2021/12/08 09:25:40;;;;;;;7.03;3.58;;;;;;;3.52;100.00;97302.44;5095875;28;20528;-70
2021/12/08 09:28:11;;;;;;;8.57;3.50;;;;;;;3.45;100.00;97297.03;5074970;28;20029;-73
2021/12/08 09:30:45;;;;;;;5.82;3.67;;;;;;;3.39;100.00;97300.50;5092744;28;20074;-70
2021/12/08 09:33:15;;;;;;;8.48;4.13;;;;;;;3.34;100.00;97288.75;5095739;28;20073;-74
2021/12/08 09:35:55;;;;;;;9.23;4.32;;;;;;;3.44;100.00;97289.22;5068446;28;20394;-71
2021/12/08 09:38:36;;;;;;;9.40;5.20;;;;;;;3.56;100.00;97290.31;5071549;28;20021;-71
2021/12/08 09:41:07;;;;;;;7.85;4.60;;;;;;;3.65;100.00;97288.34;5074691;28;20032;-71
2021/12/08 09:43:41;;;;;;;12.10;5.22;;;;;;;3.66;100.00;97269.41;5072518;28;20024;-73
2021/12/08 09:46:11;;;;;;;7.82;4.25;;;;;;;3.80;100.00;97283.69;5073504;28;20059;-73
2021/12/08 09:48:38;;;;;;;7.82;4.57;;;;;;;3.76;100.00;97277.06;5071815;28;20032;-73
2021/12/08 09:51:04;;;;;;;6.55;3.97;;;;;;;3.70;100.00;97293.91;5074028;28;20016;-70
2021/12/08 09:53:30;;;;;;;9.70;4.13;;;;;;;3.53;100.00;97277.34;5076051;28;20362;-69
2021/12/08 09:55:55;;;;;;;10.45;4.93;;;;;;;3.64;100.00;97290.19;5074883;28;20030;-75
2021/12/08 09:58:22;;;;;;;11.02;4.40;;;;;;;3.46;100.00;97276.50;5074926;28;20072;-74
2021/12/08 10:00:53;;;;;;;12.90;5.55;;;;;;;3.34;100.00;97240.63;5073681;28;20040;-75
2021/12/08 10:03:18;;;;;;;11.75;5.30;;;;;;;3.47;100.00;97252.22;5075026;28;20021;-75
2021/12/08 10:05:44;;;;;;;9.82;4.95;;;;;;;3.42;100.00;97237.81;5073090;28;20158;-75
2021/12/08 10:08:10;;;;;;;13.70;3.95;;;;;;;3.67;100.00;97281.78;5073575;28;20036;-75
2021/12/08 10:10:38;;;;;;;8.02;3.80;;;;;;;3.70;100.00;97272.53;5073198;28;20563;-74
2021/12/08 10:13:04;;;;;;;7.78;4.70;;;;;;;3.58;100.00;97247.34;5074632;28;20031;-74
2021/12/08 10:15:30;;;;;;;8.20;4.70;;;;;;;3.68;100.00;97256.66;5073191;28;20032;-73
2021/12/08 10:17:57;;;;;;;14.80;4.90;;;;;;;3.80;100.00;97261.44;5072308;28;20024;-74
2021/12/08 10:20:30;;;;;;;7.43;4.10;;;;;;;3.82;100.00;97264.75;5076579;28;20025;-72
2021/12/08 10:23:15;;;;;;;10.73;5.13;;;;;;;3.97;100.00;97257.41;5068692;28;20032;-76
2021/12/08 10:25:48;;;;;;;10.90;4.93;;;;;;;3.90;100.00;97241.34;5069690;28;20082;-73
2021/12/08 10:28:21;;;;;;;6.72;4.68;;;;;;;3.97;100.00;97260.09;5072815;28;20497;-71
2021/12/08 10:30:47;;;;;;;8.90;4.38;;;;;;;4.02;100.00;97265.69;5072782;28;20035;-71
2021/12/08 10:36:48;;;;;;;8.80;4.63;;;;;;;4.01;100.00;97252.47;5063941;28;20082;-69
2021/12/08 10:39:24;;;;;;;7.88;4.40;;;;;;;4.07;100.00;97262.41;5073057;28;20041;-68
2021/12/08 10:42:00;;;;;;;7.90;4.82;;;;;;;4.06;100.00;97250.03;5053773;28;20541;-68
2021/12/08 10:44:53;;;;;;;9.98;4.78;;;;;;;4.23;100.00;97251.34;5052920;28;20096;-68
2021/12/08 10:47:22;;;;;;;15.35;5.35;;;;;;;4.14;100.00;97260.59;5071550;28;20496;-68
2021/12/08 10:55:33;;;;;;;16.45;4.75;;;;;;;4.14;100.00;97220.44;5068101;28;20043;-68
2021/12/08 10:57:59;;;;;;;11.32;5.70;;;;;;;4.30;100.00;97251.38;5071025;28;20029;-68
2021/12/08 11:00:39;;;;;;;7.00;4.28;;;;;;;4.38;100.00;97243.16;5052783;28;20586;-68
2021/12/08 11:03:08;;;;;;;10.10;6.00;;;;;;;4.29;100.00;97249.69;5063937;28;20029;-68
2021/12/08 11:05:38;;;;;;;7.65;5.13;;;;;;;4.30;100.00;97230.78;5068425;28;20339;-69
2021/12/08 11:08:12;;;;;;;6.78;4.07;;;;;;;4.42;100.00;97232.84;5051039;28;20032;-68
2021/12/08 11:10:55;;;;;;;7.72;3.92;;;;;;;4.39;100.00;97234.91;5067985;28;20052;-68
2021/12/08 11:13:33;;;;;;;5.63;3.08;;;;;;;4.29;100.00;97229.09;5069737;28;20024;-69
2021/12/08 11:16:16;;;;;;;12.25;4.13;;;;;;;4.33;100.00;97218.84;5066539;28;20485;-68
2021/12/08 11:18:49;;;;;;;6.43;3.20;;;;;;;4.35;100.00;97217.59;5050809;28;20131;-68
2021/12/08 11:21:20;;;;;;;5.20;3.05;;;;;;;4.53;100.00;97219.72;5063203;28;20256;-69
2021/12/08 11:23:48;;;;;;;6.55;3.95;;;;;;;4.55;100.00;97200.72;5069406;28;20024;-69
2021/12/08 11:26:47;;;;;;;6.50;3.40;;;;;;;4.63;100.00;97216.59;5068229;28;20043;-69
2021/12/08 11:29:20;;;;;;;5.00;2.80;;;;;;;4.68;100.00;97210.63;5046034;28;20093;-69
2021/12/08 11:31:51;;;;;;;5.78;4.03;;;;;;;4.66;100.00;97218.88;5066416;28;20764;-68
2021/12/08 11:34:32;;;;;;;5.03;3.53;;;;;;;4.59;100.00;97218.06;5059394;28;20481;-68
2021/12/08 11:37:01;;;;;;;5.00;3.20;;;;;;;4.54;100.00;97207.13;5070145;28;20569;-69
2021/12/08 11:39:32;;;;;;;7.82;4.60;;;;;;;4.51;100.00;97204.88;5068157;28;20058;-69
2021/12/08 11:42:06;;;;;;;8.50;4.35;;;;;;;4.48;100.00;97208.78;5069676;28;20028;-69
2021/12/08 11:44:34;;;;;;;11.02;4.22;;;;;;;4.17;100.00;97153.94;5069410;28;20044;-69
2021/12/08 11:47:07;;;;;;;8.07;4.30;;;;;;;4.55;100.00;97195.38;5069622;28;20096;-69
2021/12/08 11:49:34;;;;;;;8.93;3.67;;;;;;;4.57;100.00;97190.66;5057651;28;20098;-69
2021/12/08 11:52:10;;;;;;;6.35;3.60;;;;;;;4.27;100.00;97140.16;5069761;28;20032;-69
2021/12/08 11:54:40;;;;;;;5.68;3.25;;;;;;;4.60;100.00;97193.72;5068517;28;20036;-68
2021/12/08 11:57:11;;;;;;;7.50;2.90;;;;;;;4.50;100.00;97193.31;5067537;28;20028;-68
2021/12/08 11:59:49;;;;;;;8.73;5.18;;;;;;;4.57;100.00;97196.00;5069488;28;20670;-69
2021/12/08 12:02:18;;;;;;;11.35;5.63;;;;;;;4.57;100.00;97196.81;5069774;28;20036;-69
2021/12/08 12:04:44;;;;;;;;;;;;;;;4.60;100.00;97190.22;5068180;28;20135;-69
2021/12/08 12:07:12;;;;;;;9.20;5.55;;;;;;;4.63;100.00;97191.69;5057679;28;20477;-68
2021/12/08 12:09:39;;;;;;;9.63;5.18;;;;;;;4.66;100.00;97201.97;5068979;28;20024;-69
2021/12/08 12:12:04;;;;;;;9.45;4.25;;;;;;;4.67;100.00;97198.28;5071389;28;20039;-70
2021/12/08 12:14:31;;;;;;;6.65;3.92;;;;;;;4.69;100.00;97189.00;5069924;28;20020;-70
2021/12/08 12:16:56;;;;;;;5.43;3.55;;;;;;;4.70;100.00;97193.34;5066590;28;20047;-69
2021/12/08 12:19:24;;;;;;;5.45;3.47;;;;;;;4.76;100.00;97203.22;5069510;28;20036;-71
2021/12/08 12:22:00;;;;;;;5.50;3.88;;;;;;;4.74;100.00;97205.31;5072046;28;20119;-71
2021/12/08 12:24:56;;;;;;;6.60;3.30;;;;;;;4.74;100.00;97199.94;5072084;28;20086;-71
2021/12/08 12:27:52;;;;;;;6.05;3.45;;;;;;;4.80;100.00;97198.28;5067121;28;20466;-70
2021/12/08 12:30:42;;;;;;;5.60;3.70;;;;;;;4.72;100.00;97196.63;5068376;28;20024;-69
2021/12/08 12:33:19;;;;;;;7.07;3.53;;;;;;;4.61;100.00;97186.50;5067246;28;20497;-69
2021/12/08 12:35:50;;;;;;;6.55;3.80;;;;;;;4.68;100.00;97191.88;5073104;28;20259;-71
2021/12/08 12:38:16;;;;;;;5.57;3.30;;;;;;;4.64;100.00;97188.81;5062292;28;20111;-70
2021/12/08 12:40:47;;;;;;;6.75;3.38;;;;;;;4.70;100.00;97190.66;5068836;28;20099;-68